Terminal Aerodrome Forecast
Issued by NWS

Home | Current Version | Previous Version | Text Only | Print | Product List | Glossary On
Versions: 1 2 3 4 5 6 7 8 9 10 11 12 13 14 15 16 17 18 19 20 21 22 23 24 25 26 27 28 29 30 31 32 33 34 35 36 37 38 39 40 41 42 43 44 45 46 47 48 49 50
261
FTUS41 KCTP 301800 RRA
TAFUNV
TAF
KUNV 301800Z 3018/3118 10008KT P6SM VCSH SCT035 OVC070
     FM301900 12010KT 5SM -SHRA SCT025 OVC035
     FM302000 13010G17KT P6SM BKN035
     FM302300 15006KT 5SM BR VCSH OVC025 WS020/17035KT
     FM310300 12004KT 3SM -SHRA BR OVC010 WS020/18035KT
     FM310900 12004KT 1SM -RA BR OVC007 WS020/20042KT PROB30
      3112/3118 08010KT 2SM -RA BR OVC004=

USA.gov is the U.S. government's official web portal to all federal, state and local government web resources and services.